createdAt,value
2022-08-26T00:00:21.272Z,25.40
2022-08-26T00:02:49.541Z,25.30
2022-08-26T00:05:18.472Z,25.20
2022-08-26T00:07:47.763Z,25.20
2022-08-26T00:10:17.084Z,25.20
2022-08-26T00:12:45.879Z,25.20
2022-08-26T00:15:18.972Z,25.20
2022-08-26T00:17:50.442Z,25.20
2022-08-26T00:20:22.331Z,25.20
2022-08-26T00:22:50.737Z,25.20
2022-08-26T00:25:19.812Z,25.20
2022-08-26T00:27:49.006Z,25.20
2022-08-26T00:30:22.744Z,25.20
2022-08-26T00:32:54.277Z,25.20
2022-08-26T00:35:23.159Z,25.20
2022-08-26T00:37:51.962Z,25.10
2022-08-26T00:40:23.429Z,25.00
2022-08-26T00:42:51.638Z,25.00
2022-08-26T00:45:19.982Z,25.00
2022-08-26T00:47:56.110Z,25.00
2022-08-26T00:50:32.590Z,25.10
2022-08-26T00:53:04.205Z,25.10
2022-08-26T00:55:38.388Z,25.00
2022-08-26T00:58:08.201Z,25.00
2022-08-26T01:00:36.506Z,24.90
2022-08-26T01:03:11.446Z,24.90
2022-08-26T01:05:40.636Z,24.80
2022-08-26T01:08:08.863Z,24.70
2022-08-26T01:10:37.239Z,24.70
2022-08-26T01:13:11.008Z,24.70
2022-08-26T01:15:46.002Z,24.70
2022-08-26T01:18:17.126Z,24.60
2022-08-26T01:20:57.789Z,24.60
2022-08-26T01:23:29.407Z,24.60
2022-08-26T01:26:05.105Z,24.60
2022-08-26T01:28:35.558Z,24.60
2022-08-26T01:31:06.705Z,24.60
2022-08-26T01:33:42.522Z,24.60
2022-08-26T01:36:11.135Z,24.60
2022-08-26T01:38:41.227Z,24.60
2022-08-26T01:41:19.663Z,24.60
2022-08-26T01:43:52.426Z,24.60
2022-08-26T01:46:23.683Z,24.60
2022-08-26T01:48:56.138Z,24.60
2022-08-26T01:51:27.393Z,24.60
2022-08-26T01:53:57.319Z,24.60
2022-08-26T01:56:33.466Z,24.60
2022-08-26T01:59:09.448Z,24.60
2022-08-26T02:01:39.255Z,24.60
2022-08-26T02:04:17.555Z,24.60
2022-08-26T02:06:46.991Z,24.60
2022-08-26T02:09:18.254Z,24.60
2022-08-26T02:11:49.035Z,24.50
2022-08-26T02:14:23.509Z,24.50
2022-08-26T02:16:56.247Z,24.50
2022-08-26T02:19:31.280Z,24.50
2022-08-26T02:22:02.731Z,24.50
2022-08-26T02:24:50.389Z,24.50
2022-08-26T02:27:22.778Z,24.50
2022-08-26T02:29:56.963Z,24.40
2022-08-26T02:32:26.116Z,24.50
2022-08-26T02:34:55.287Z,24.50
2022-08-26T02:37:23.489Z,24.50
2022-08-26T02:39:53.131Z,24.50
2022-08-26T02:42:21.486Z,24.50
2022-08-26T02:44:50.498Z,24.50
2022-08-26T02:47:18.939Z,24.50
2022-08-26T02:49:47.678Z,24.50
2022-08-26T02:52:16.308Z,24.50
2022-08-26T02:54:45.459Z,24.50
2022-08-26T02:57:15.194Z,24.50
2022-08-26T02:59:43.600Z,24.50
2022-08-26T03:02:12.797Z,24.50
2022-08-26T03:04:58.145Z,24.50
2022-08-26T03:07:31.093Z,24.50
2022-08-26T03:09:59.547Z,24.50
2022-08-26T03:12:29.646Z,24.50
2022-08-26T03:14:58.131Z,24.50
2022-08-26T03:17:27.026Z,24.50
2022-08-26T03:19:57.225Z,24.40
2022-08-26T03:22:27.094Z,24.40
2022-08-26T03:24:55.750Z,24.30
2022-08-26T03:27:24.033Z,24.30
2022-08-26T03:30:11.799Z,24.20
2022-08-26T03:32:41.384Z,24.20
2022-08-26T03:35:10.633Z,24.20
2022-08-26T03:37:39.291Z,24.20
2022-08-26T03:40:10.997Z,24.20
2022-08-26T03:42:40.807Z,24.20
2022-08-26T03:45:16.126Z,24.10
2022-08-26T03:47:44.714Z,24.10
2022-08-26T03:50:17.701Z,24.10
2022-08-26T03:52:51.764Z,24.10
2022-08-26T03:55:23.755Z,24.10
2022-08-26T03:57:52.355Z,24.10
2022-08-26T04:00:22.123Z,24.10
2022-08-26T04:02:53.168Z,24.10
2022-08-26T04:05:23.394Z,24.10
2022-08-26T04:07:52.521Z,24.10
2022-08-26T04:10:28.522Z,24.10
2022-08-26T04:12:58.815Z,24.10
2022-08-26T04:15:29.735Z,24.10
2022-08-26T04:17:58.265Z,24.10
2022-08-26T04:20:26.877Z,24.10
2022-08-26T04:22:55.187Z,24.10
2022-08-26T04:25:24.265Z,24.10
2022-08-26T04:27:52.775Z,24.10
2022-08-26T04:30:21.280Z,24.10
2022-08-26T04:32:51.015Z,24.10
2022-08-26T04:35:25.462Z,24.10
2022-08-26T04:37:55.445Z,24.10
2022-08-26T04:40:24.300Z,24.10
2022-08-26T04:42:54.284Z,24.00
2022-08-26T04:45:23.029Z,24.00
2022-08-26T04:47:56.354Z,24.00
2022-08-26T04:50:26.950Z,24.10
2022-08-26T04:52:56.167Z,24.10
2022-08-26T04:55:37.264Z,24.10
2022-08-26T04:58:10.383Z,24.10
2022-08-26T05:00:39.541Z,24.10
2022-08-26T05:03:10.472Z,24.10
2022-08-26T05:05:41.276Z,24.10
2022-08-26T05:08:11.304Z,24.10
2022-08-26T05:10:44.470Z,24.10
2022-08-26T05:13:15.546Z,24.20
2022-08-26T05:15:46.040Z,24.20
2022-08-26T05:18:17.825Z,24.20
2022-08-26T05:20:50.890Z,24.20
2022-08-26T05:23:22.694Z,24.30
2022-08-26T05:25:58.337Z,24.20
2022-08-26T05:28:28.566Z,24.20
2022-08-26T05:30:57.560Z,24.20
2022-08-26T05:33:27.260Z,24.20
2022-08-26T05:35:55.450Z,24.20
2022-08-26T05:38:24.119Z,24.30
2022-08-26T05:40:53.489Z,24.30
2022-08-26T05:43:22.857Z,24.30
2022-08-26T05:45:52.016Z,24.40
2022-08-26T05:48:22.642Z,24.40
2022-08-26T05:50:54.739Z,24.40
2022-08-26T05:53:26.013Z,24.40
2022-08-26T05:55:56.212Z,24.40
2022-08-26T05:58:27.095Z,24.50
2022-08-26T06:01:01.699Z,24.50
2022-08-26T06:03:33.946Z,24.50
2022-08-26T06:06:11.752Z,24.50
2022-08-26T06:08:44.842Z,24.50
2022-08-26T06:11:18.389Z,24.60
2022-08-26T06:13:47.527Z,24.50
2022-08-26T06:16:20.340Z,24.50
2022-08-26T06:18:50.684Z,24.50
2022-08-26T06:21:24.504Z,24.50
2022-08-26T06:24:14.436Z,24.50
2022-08-26T06:26:50.585Z,24.40
2022-08-26T06:29:24.347Z,24.50
2022-08-26T06:31:53.784Z,24.50
2022-08-26T06:34:22.549Z,24.50
2022-08-26T06:36:57.897Z,24.50
2022-08-26T06:39:26.452Z,24.50
2022-08-26T06:41:56.073Z,24.50
2022-08-26T06:44:24.303Z,24.50
2022-08-26T06:46:52.601Z,24.50
2022-08-26T06:49:26.910Z,24.50
2022-08-26T06:51:59.184Z,24.50
2022-08-26T06:54:27.953Z,24.50
2022-08-26T06:56:57.496Z,24.50
2022-08-26T06:59:26.406Z,24.50
2022-08-26T07:01:55.379Z,24.50
2022-08-26T07:04:24.970Z,24.50
2022-08-26T07:06:58.393Z,24.50
2022-08-26T07:09:30.363Z,24.50
2022-08-26T07:11:59.587Z,24.60
2022-08-26T07:14:27.961Z,24.60
2022-08-26T07:16:56.753Z,24.60
2022-08-26T07:19:29.778Z,24.70
2022-08-26T07:22:02.087Z,24.70
2022-08-26T07:24:31.117Z,24.70
2022-08-26T07:27:02.910Z,24.70
2022-08-26T07:29:31.487Z,24.70
2022-08-26T07:32:00.004Z,24.70
2022-08-26T07:34:28.667Z,24.70
2022-08-26T07:36:58.792Z,24.70
2022-08-26T07:39:31.591Z,24.70
2022-08-26T07:42:01.635Z,24.70
2022-08-26T07:44:36.018Z,24.70
2022-08-26T07:47:10.477Z,24.70
2022-08-26T07:49:52.987Z,24.60
2022-08-26T07:52:26.371Z,24.60
2022-08-26T07:54:59.169Z,24.60
2022-08-26T07:57:28.399Z,24.60
2022-08-26T07:59:57.658Z,24.60
2022-08-26T08:02:28.133Z,24.60
2022-08-26T08:04:57.884Z,24.50
2022-08-26T08:07:38.795Z,24.50
2022-08-26T08:10:20.875Z,24.50
2022-08-26T08:12:50.090Z,24.40
2022-08-26T08:15:21.163Z,24.40
2022-08-26T08:17:51.501Z,24.40
2022-08-26T08:20:22.092Z,24.40
2022-08-26T08:22:52.402Z,24.50
2022-08-26T08:25:24.654Z,24.50
2022-08-26T08:27:53.160Z,24.50
2022-08-26T08:30:23.367Z,24.50
2022-08-26T08:32:52.448Z,24.60
2022-08-26T08:35:22.713Z,24.60
2022-08-26T08:37:54.431Z,24.70
2022-08-26T08:40:27.230Z,24.80
2022-08-26T08:43:00.903Z,24.80
2022-08-26T08:45:37.227Z,24.90
2022-08-26T08:48:12.031Z,24.90
2022-08-26T08:50:46.076Z,24.90
2022-08-26T08:53:19.169Z,24.90
2022-08-26T08:56:05.449Z,24.90
2022-08-26T08:58:51.913Z,25.00
2022-08-26T09:01:31.413Z,24.90
2022-08-26T09:04:25.154Z,24.90
2022-08-26T09:09:33.110Z,24.90
2022-08-26T09:12:03.905Z,24.80
2022-08-26T09:14:32.860Z,24.90
2022-08-26T09:17:13.267Z,24.80
2022-08-26T09:19:47.897Z,24.80
2022-08-26T09:22:31.058Z,24.80
2022-08-26T09:24:59.659Z,24.80
2022-08-26T09:27:45.619Z,24.80
2022-08-26T09:30:19.835Z,24.80
2022-08-26T09:33:01.646Z,24.90
2022-08-26T09:35:34.053Z,24.90
2022-08-26T09:38:02.995Z,25.00
2022-08-26T09:40:35.386Z,25.00
2022-08-26T09:43:22.063Z,25.00
2022-08-26T09:45:58.388Z,25.10
2022-08-26T09:48:37.443Z,25.10
2022-08-26T09:51:29.782Z,25.10
2022-08-26T09:54:02.001Z,25.20
2022-08-26T09:56:33.154Z,25.20
2022-08-26T09:59:03.620Z,25.20
2022-08-26T10:01:38.235Z,25.30
2022-08-26T10:04:11.371Z,25.30
2022-08-26T10:06:44.503Z,25.40
2022-08-26T10:09:18.915Z,25.40
2022-08-26T10:11:51.734Z,25.40
2022-08-26T10:14:29.451Z,25.40
2022-08-26T10:17:05.393Z,25.40
2022-08-26T10:19:55.567Z,25.50
2022-08-26T10:22:29.336Z,25.50
2022-08-26T10:25:03.264Z,25.40
2022-08-26T10:27:51.257Z,25.40
2022-08-26T10:30:25.882Z,25.40
2022-08-26T10:32:59.211Z,25.40
2022-08-26T10:35:28.183Z,25.40
2022-08-26T10:38:03.962Z,25.40
2022-08-26T10:40:48.961Z,25.30
2022-08-26T10:43:23.540Z,25.20
2022-08-26T10:46:00.674Z,25.30
2022-08-26T10:48:43.489Z,25.20
2022-08-26T10:51:14.374Z,25.20
2022-08-26T10:53:52.791Z,25.20
2022-08-26T10:56:41.844Z,25.10
2022-08-26T10:59:21.430Z,25.10
2022-08-26T11:01:58.928Z,25.20
2022-08-26T11:04:47.710Z,25.20
2022-08-26T11:07:42.787Z,25.10
2022-08-26T11:10:42.553Z,25.30
2022-08-26T11:13:12.107Z,25.40
2022-08-26T11:16:09.355Z,25.40
2022-08-26T11:18:45.843Z,25.50
2022-08-26T11:21:52.959Z,25.50
2022-08-26T11:25:15.687Z,25.50
2022-08-26T11:28:07.721Z,25.60
2022-08-26T11:30:57.512Z,25.50
2022-08-26T11:33:59.456Z,25.40
2022-08-26T11:36:59.730Z,25.30
2022-08-26T11:39:36.830Z,25.20
2022-08-26T11:42:24.802Z,25.10
2022-08-26T11:44:58.182Z,24.90
2022-08-26T11:47:32.225Z,24.70
2022-08-26T11:50:16.377Z,24.40
2022-08-26T11:52:54.050Z,24.20
2022-08-26T11:55:23.428Z,24.10
2022-08-26T11:57:57.927Z,24.00
2022-08-26T12:00:33.501Z,23.90
2022-08-26T12:03:08.524Z,23.80
2022-08-26T12:05:45.797Z,23.70
2022-08-26T12:08:18.262Z,23.70
2022-08-26T12:10:48.265Z,23.70
2022-08-26T12:13:26.707Z,23.60
2022-08-26T12:15:58.725Z,23.70
2022-08-26T12:18:34.330Z,23.70
2022-08-26T12:21:16.189Z,23.80
2022-08-26T12:23:47.872Z,23.80
2022-08-26T12:26:31.901Z,23.90
2022-08-26T12:29:19.752Z,23.90
2022-08-26T12:31:49.779Z,24.00
2022-08-26T12:34:19.205Z,24.00
2022-08-26T12:36:54.060Z,24.00
2022-08-26T12:39:29.143Z,24.00
2022-08-26T12:41:59.787Z,24.00
2022-08-26T12:44:53.361Z,23.90
2022-08-26T12:47:33.859Z,23.90
2022-08-26T12:50:19.311Z,23.90
2022-08-26T12:52:59.899Z,24.00
2022-08-26T12:55:39.529Z,24.00
2022-08-26T12:58:26.624Z,24.10
2022-08-26T13:00:57.325Z,24.10
2022-08-26T13:03:43.282Z,24.10
2022-08-26T13:06:27.911Z,24.20
2022-08-26T13:08:59.837Z,24.20
2022-08-26T13:11:30.696Z,24.30
2022-08-26T13:14:02.276Z,24.20
2022-08-26T13:16:36.123Z,24.20
2022-08-26T13:19:10.319Z,24.30
2022-08-26T13:21:47.909Z,24.20
2022-08-26T13:24:21.232Z,24.20
2022-08-26T13:26:51.319Z,24.20
2022-08-26T13:29:20.566Z,24.30
2022-08-26T13:31:49.223Z,24.30
2022-08-26T13:34:21.515Z,24.30
2022-08-26T13:36:54.127Z,24.30
2022-08-26T13:39:24.674Z,24.30
2022-08-26T13:41:53.754Z,24.20
2022-08-26T13:44:22.710Z,24.20
2022-08-26T13:46:51.084Z,24.10
2022-08-26T13:49:19.394Z,24.10
2022-08-26T13:51:47.686Z,24.10
2022-08-26T13:54:15.914Z,24.20
2022-08-26T13:56:45.608Z,24.20
2022-08-26T13:59:13.903Z,24.20
2022-08-26T14:01:42.407Z,24.30
2022-08-26T14:04:10.743Z,24.40
2022-08-26T14:06:39.232Z,24.40
2022-08-26T14:09:07.601Z,24.50
2022-08-26T14:11:50.665Z,24.50
2022-08-26T14:14:25.078Z,24.50
2022-08-26T14:16:59.336Z,24.50
2022-08-26T14:19:29.709Z,24.50
2022-08-26T14:21:59.294Z,24.50
2022-08-26T14:24:27.639Z,24.40
2022-08-26T14:26:55.933Z,24.50
2022-08-26T14:29:26.298Z,24.40
2022-08-26T14:31:56.183Z,24.50
2022-08-26T14:34:26.141Z,24.50
2022-08-26T14:36:54.409Z,24.50
2022-08-26T14:39:22.692Z,24.50
2022-08-26T14:41:55.952Z,24.40
2022-08-26T14:44:29.075Z,24.40
2022-08-26T14:46:57.887Z,24.40
2022-08-26T14:49:27.397Z,24.30
2022-08-26T14:51:56.451Z,24.20
2022-08-26T14:54:25.041Z,24.20
2022-08-26T14:56:55.977Z,24.00
2022-08-26T14:59:28.948Z,24.10
2022-08-26T15:01:58.288Z,24.00
2022-08-26T15:04:26.851Z,24.00
2022-08-26T15:06:57.399Z,23.90
2022-08-26T15:09:26.993Z,23.90
2022-08-26T15:11:57.058Z,23.90
2022-08-26T15:14:30.922Z,23.90
2022-08-26T15:17:01.328Z,23.90
2022-08-26T15:19:30.144Z,23.90
2022-08-26T15:21:58.733Z,24.00
2022-08-26T15:24:28.891Z,24.00
2022-08-26T15:26:57.595Z,24.10
2022-08-26T15:29:27.650Z,24.10
2022-08-26T15:31:57.347Z,24.10
2022-08-26T15:34:27.050Z,24.10
2022-08-26T15:36:56.257Z,24.20
2022-08-26T15:39:25.154Z,24.20
2022-08-26T15:41:56.132Z,24.20
2022-08-26T15:44:29.001Z,24.10
2022-08-26T15:46:58.796Z,24.10
2022-08-26T15:49:28.118Z,24.10
2022-08-26T15:51:56.827Z,24.10
2022-08-26T15:54:45.701Z,24.00
2022-08-26T15:57:16.439Z,23.90
2022-08-26T15:59:48.926Z,23.80
2022-08-26T16:02:18.693Z,23.70
2022-08-26T16:04:47.206Z,23.70
2022-08-26T16:07:15.700Z,23.50
2022-08-26T16:09:44.072Z,23.50
2022-08-26T16:12:12.543Z,23.40
2022-08-26T16:14:42.808Z,23.40
2022-08-26T16:17:13.186Z,23.30
2022-08-26T16:19:41.647Z,23.30
2022-08-26T16:22:10.047Z,23.20
2022-08-26T16:24:38.858Z,23.20
2022-08-26T16:27:08.424Z,23.10
2022-08-26T16:29:39.790Z,23.10
2022-08-26T16:32:09.187Z,23.20
2022-08-26T16:34:39.111Z,23.20
2022-08-26T16:37:24.646Z,23.20
2022-08-26T16:39:53.061Z,23.30
2022-08-26T16:42:21.657Z,23.30
2022-08-26T16:44:49.988Z,23.40
2022-08-26T16:47:19.517Z,23.40
2022-08-26T16:49:49.727Z,23.40
2022-08-26T16:52:19.192Z,23.40
2022-08-26T16:54:48.519Z,23.30
2022-08-26T16:57:17.330Z,23.40
2022-08-26T16:59:46.188Z,23.30
2022-08-26T17:02:14.553Z,23.30
2022-08-26T17:04:46.176Z,23.30
2022-08-26T17:07:18.082Z,23.30
2022-08-26T17:09:46.376Z,23.30
2022-08-26T17:12:14.747Z,23.30
2022-08-26T17:14:43.291Z,23.30
2022-08-26T17:17:14.667Z,23.30
2022-08-26T17:19:47.239Z,23.30
2022-08-26T17:22:17.623Z,23.30
2022-08-26T17:24:45.984Z,23.30
2022-08-26T17:27:14.659Z,23.30
2022-08-26T17:29:42.878Z,23.30
2022-08-26T17:32:11.131Z,23.30
2022-08-26T17:34:39.466Z,23.30
2022-08-26T17:37:08.258Z,23.30
2022-08-26T17:39:42.534Z,23.30
2022-08-26T17:42:11.764Z,23.30
2022-08-26T17:44:40.543Z,23.30
2022-08-26T17:47:08.764Z,23.30
2022-08-26T17:49:36.944Z,23.30
2022-08-26T17:52:10.953Z,23.20
2022-08-26T17:54:41.286Z,23.20
2022-08-26T17:57:10.694Z,23.20
2022-08-26T17:59:41.062Z,23.20
2022-08-26T18:02:09.332Z,23.20
2022-08-26T18:04:37.544Z,23.10
2022-08-26T18:07:06.295Z,23.10
2022-08-26T18:09:35.151Z,23.10
2022-08-26T18:12:06.318Z,23.10
2022-08-26T18:14:35.333Z,23.10
2022-08-26T18:17:04.958Z,23.10
2022-08-26T18:19:33.284Z,23.10
2022-08-26T18:22:01.523Z,23.10
2022-08-26T18:24:30.399Z,23.10
2022-08-26T18:26:59.550Z,23.10
2022-08-26T18:29:29.373Z,23.10
2022-08-26T18:32:00.635Z,23.10
2022-08-26T18:34:32.062Z,23.00
2022-08-26T18:37:00.734Z,23.00
2022-08-26T18:39:29.393Z,23.00
2022-08-26T18:42:02.723Z,22.90
2022-08-26T18:44:32.820Z,22.90
2022-08-26T18:47:01.504Z,22.90
2022-08-26T18:49:30.178Z,22.90
2022-08-26T18:51:58.659Z,22.90
2022-08-26T18:54:27.414Z,22.90
2022-08-26T18:56:55.864Z,22.80
2022-08-26T18:59:26.854Z,22.80
2022-08-26T19:02:02.110Z,22.70
2022-08-26T19:04:30.822Z,22.70
2022-08-26T19:06:59.493Z,22.70
2022-08-26T19:09:31.600Z,22.70
2022-08-26T19:12:00.572Z,22.60
2022-08-26T19:14:37.079Z,22.60
2022-08-26T19:17:09.064Z,22.50
2022-08-26T19:19:38.594Z,22.50
2022-08-26T19:22:07.678Z,22.50
2022-08-26T19:24:38.063Z,22.50
2022-08-26T19:27:09.713Z,22.40
2022-08-26T19:29:40.386Z,22.40
2022-08-26T19:32:12.430Z,22.40
2022-08-26T19:34:42.556Z,22.30
2022-08-26T19:37:11.941Z,22.30
2022-08-26T19:39:40.701Z,22.30
2022-08-26T19:42:12.052Z,22.30
2022-08-26T19:47:46.461Z,22.20
2022-08-26T19:50:24.757Z,22.20
2022-08-26T19:53:03.023Z,22.20
2022-08-26T19:55:34.843Z,22.20
2022-08-26T19:58:03.867Z,22.20
2022-08-26T20:00:34.607Z,22.10
2022-08-26T20:03:04.882Z,22.10
2022-08-26T20:05:35.070Z,22.10
2022-08-26T20:08:07.275Z,22.10
2022-08-26T20:10:44.214Z,22.10
2022-08-26T20:13:13.427Z,22.10
2022-08-26T20:15:42.802Z,22.10
2022-08-26T20:18:29.968Z,22.10
2022-08-26T20:21:16.416Z,22.10
2022-08-26T20:23:46.032Z,22.00
2022-08-26T20:26:14.559Z,22.00
2022-08-26T20:28:43.014Z,22.00
2022-08-26T20:31:12.489Z,22.00
2022-08-26T20:33:46.347Z,22.00
2022-08-26T20:36:15.868Z,22.10
2022-08-26T20:38:45.309Z,22.00
2022-08-26T20:41:14.564Z,22.00
2022-08-26T20:43:43.691Z,22.00
2022-08-26T20:46:18.042Z,22.00
2022-08-26T20:48:49.972Z,22.00
2022-08-26T20:51:20.376Z,22.00
2022-08-26T20:53:48.624Z,22.00
2022-08-26T20:56:24.423Z,22.00
2022-08-26T20:58:55.557Z,21.90
2022-08-26T21:01:26.861Z,21.90
2022-08-26T21:03:58.087Z,21.90
2022-08-26T21:06:26.807Z,21.90
2022-08-26T21:08:57.169Z,21.90
2022-08-26T21:11:26.597Z,21.90
2022-08-26T21:14:16.721Z,21.80
2022-08-26T21:16:44.758Z,21.80
2022-08-26T21:19:19.197Z,21.80
2022-08-26T21:21:49.909Z,21.80
2022-08-26T21:24:19.083Z,21.80
2022-08-26T21:26:48.959Z,21.80
2022-08-26T21:29:17.743Z,21.70
2022-08-26T21:31:46.990Z,21.70
2022-08-26T21:34:20.220Z,21.70
2022-08-26T21:36:50.273Z,21.70
2022-08-26T21:39:19.742Z,21.70
2022-08-26T21:41:48.487Z,21.70
2022-08-26T21:44:18.572Z,21.70
2022-08-26T21:46:48.064Z,21.70
2022-08-26T21:49:18.293Z,21.70
2022-08-26T21:51:49.125Z,21.70
2022-08-26T21:54:18.667Z,21.70
2022-08-26T21:56:48.555Z,21.70
2022-08-26T21:59:20.561Z,21.70
2022-08-26T22:01:49.207Z,21.70
2022-08-26T22:04:19.850Z,21.80
2022-08-26T22:06:57.662Z,21.80
2022-08-26T22:09:29.182Z,21.80
2022-08-26T22:11:58.689Z,21.80
2022-08-26T22:14:30.930Z,21.80
2022-08-26T22:17:02.882Z,21.80
2022-08-26T22:19:34.007Z,21.80
2022-08-26T22:22:07.582Z,21.80
2022-08-26T22:24:36.665Z,21.80
2022-08-26T22:27:05.997Z,21.80
2022-08-26T22:29:34.635Z,21.70
2022-08-26T22:32:03.552Z,21.80
2022-08-26T22:34:33.968Z,21.70
2022-08-26T22:37:03.322Z,21.80
2022-08-26T22:39:32.274Z,21.70
2022-08-26T22:42:03.861Z,21.70
2022-08-26T22:44:36.713Z,21.70
2022-08-26T22:47:05.510Z,21.60
2022-08-26T22:49:35.149Z,21.60
2022-08-26T22:52:04.447Z,21.60
2022-08-26T22:54:34.193Z,21.60
2022-08-26T22:57:03.016Z,21.50
2022-08-26T22:59:32.220Z,21.50
2022-08-26T23:02:00.740Z,21.40
2022-08-26T23:04:29.765Z,21.30
2022-08-26T23:06:59.757Z,21.20
2022-08-26T23:09:28.234Z,21.10
2022-08-26T23:11:57.188Z,21.00
2022-08-26T23:14:27.236Z,20.90
2022-08-26T23:16:55.789Z,20.80
2022-08-26T23:19:24.953Z,20.70
2022-08-26T23:21:53.481Z,20.60
2022-08-26T23:24:23.782Z,20.50
2022-08-26T23:26:52.274Z,20.50
2022-08-26T23:29:20.840Z,20.50
2022-08-26T23:31:49.461Z,20.50
2022-08-26T23:34:35.456Z,20.40
2022-08-26T23:37:06.165Z,20.40
2022-08-26T23:39:38.047Z,20.30
2022-08-26T23:42:08.373Z,20.30
2022-08-26T23:44:36.850Z,20.30
2022-08-26T23:47:06.166Z,20.20
2022-08-26T23:49:35.909Z,20.20
2022-08-26T23:52:23.605Z,20.20
2022-08-26T23:54:53.499Z,20.20
2022-08-26T23:57:24.650Z,20.10
2022-08-26T23:59:53.638Z,20.10
